createdAt,value
2019-01-24T00:00:28.944Z,34.83
2019-01-24T00:02:58.477Z,33.73
2019-01-24T00:05:28.121Z,34.47
2019-01-24T00:07:57.642Z,34.00
2019-01-24T00:10:27.095Z,30.93
2019-01-24T00:12:56.537Z,32.08
2019-01-24T00:15:26.312Z,32.83
2019-01-24T00:17:56.122Z,31.57
2019-01-24T00:20:25.581Z,33.20
2019-01-24T00:22:58.151Z,32.50
2019-01-24T00:25:28.041Z,35.07
2019-01-24T00:27:57.532Z,35.40
2019-01-24T00:30:27.383Z,33.13
2019-01-24T00:32:57.043Z,32.00
2019-01-24T00:35:26.749Z,33.25
2019-01-24T00:37:56.278Z,34.70
2019-01-24T00:40:25.930Z,33.00
2019-01-24T00:42:55.510Z,35.53
2019-01-24T00:45:25.495Z,34.88
2019-01-24T00:47:55.499Z,34.15
2019-01-24T00:50:25.212Z,34.23
2019-01-24T00:52:54.652Z,34.73
2019-01-24T00:55:24.159Z,36.60
2019-01-24T00:57:53.894Z,35.10
2019-01-24T01:00:26.504Z,34.40
2019-01-24T01:02:55.925Z,34.63
2019-01-24T01:05:25.602Z,34.33
2019-01-24T01:07:55.192Z,34.93
2019-01-24T01:10:24.828Z,36.33
2019-01-24T01:13:13.107Z,33.87
2019-01-24T01:15:42.866Z,34.27
2019-01-24T01:18:12.790Z,33.05
2019-01-24T01:20:42.177Z,33.83
2019-01-24T01:23:11.563Z,34.87
2019-01-24T01:25:41.009Z,34.83
2019-01-24T01:28:10.532Z,35.17
2019-01-24T01:30:40.190Z,34.87
2019-01-24T01:33:09.648Z,33.97
2019-01-24T01:35:40.558Z,35.23
2019-01-24T01:38:10.204Z,35.20
2019-01-24T01:40:39.688Z,33.30
2019-01-24T01:43:09.284Z,34.67
2019-01-24T01:45:38.894Z,34.73
2019-01-24T01:48:08.381Z,34.58
2019-01-24T01:50:40.150Z,32.20
2019-01-24T01:53:09.702Z,35.00
2019-01-24T01:55:39.300Z,34.87
2019-01-24T01:58:08.683Z,34.10
2019-01-24T02:00:39.364Z,35.23
2019-01-24T02:03:12.060Z,34.00
2019-01-24T02:05:41.630Z,33.97
2019-01-24T02:08:11.333Z,34.83
2019-01-24T02:10:40.807Z,33.83
2019-01-24T02:13:10.201Z,32.80
2019-01-24T02:15:39.587Z,35.43
2019-01-24T02:18:09.179Z,35.77
2019-01-24T02:20:38.569Z,33.73
2019-01-24T02:23:08.334Z,34.87
2019-01-24T02:25:38.198Z,32.13
2019-01-24T02:28:07.777Z,35.67
2019-01-24T02:30:37.604Z,33.00
2019-01-24T02:33:07.108Z,32.83
2019-01-24T02:35:36.493Z,33.03
2019-01-24T02:38:06.210Z,31.93
2019-01-24T02:40:35.633Z,32.90
2019-01-24T02:43:05.598Z,34.10
2019-01-24T02:45:35.083Z,34.43
2019-01-24T02:48:04.616Z,36.83
2019-01-24T02:50:34.079Z,35.97
2019-01-24T02:53:03.830Z,34.50
2019-01-24T02:55:33.287Z,35.97
2019-01-24T02:58:02.820Z,36.70
2019-01-24T03:00:32.213Z,35.48
2019-01-24T03:03:01.607Z,35.87
2019-01-24T03:05:31.077Z,35.87
2019-01-24T03:08:01.006Z,32.30
2019-01-24T03:10:30.513Z,34.47
2019-01-24T03:12:59.987Z,36.73
2019-01-24T03:15:29.730Z,35.03
2019-01-24T03:17:59.697Z,35.67
2019-01-24T03:20:29.467Z,35.38
2019-01-24T03:22:58.923Z,36.95
2019-01-24T03:25:28.377Z,35.07
2019-01-24T03:27:57.893Z,35.63
2019-01-24T03:30:27.389Z,36.55
2019-01-24T03:32:56.886Z,38.50
2019-01-24T03:35:27.351Z,36.42
2019-01-24T03:37:56.759Z,35.80
2019-01-24T03:40:26.274Z,35.87
2019-01-24T03:42:56.616Z,36.08
2019-01-24T03:45:26.830Z,36.00
2019-01-24T03:47:56.807Z,34.13
2019-01-24T03:50:27.148Z,36.80
2019-01-24T03:52:56.787Z,35.45
2019-01-24T03:55:26.316Z,37.07
2019-01-24T03:57:55.691Z,35.90
2019-01-24T04:00:26.278Z,34.50
2019-01-24T04:02:55.813Z,34.77
2019-01-24T04:05:25.981Z,36.57
2019-01-24T04:07:58.422Z,36.10
2019-01-24T04:10:27.856Z,37.37
2019-01-24T04:12:57.471Z,37.37
2019-01-24T04:15:27.033Z,38.43
2019-01-24T04:17:56.684Z,38.00
2019-01-24T04:20:26.167Z,35.63
2019-01-24T04:22:55.630Z,35.53
2019-01-24T04:25:25.107Z,34.03
2019-01-24T04:27:54.579Z,34.53
2019-01-24T04:30:24.887Z,38.48
2019-01-24T04:32:54.349Z,37.42
2019-01-24T04:35:24.057Z,34.80
2019-01-24T04:37:53.773Z,35.80
2019-01-24T04:40:23.322Z,36.33
2019-01-24T04:42:53.064Z,35.77
2019-01-24T04:45:22.509Z,34.95
2019-01-24T04:47:52.013Z,36.17
2019-01-24T04:50:21.498Z,37.07
2019-01-24T04:52:50.973Z,36.10
2019-01-24T04:55:21.094Z,34.37
2019-01-24T04:57:51.458Z,36.40
2019-01-24T05:00:25.663Z,36.17
2019-01-24T05:02:55.961Z,35.73
2019-01-24T05:05:27.899Z,36.73
2019-01-24T05:07:56.977Z,34.85
2019-01-24T05:10:26.578Z,36.37
2019-01-24T05:12:56.134Z,37.00
2019-01-24T05:15:25.906Z,34.67
2019-01-24T05:17:57.468Z,36.07
2019-01-24T05:20:27.288Z,36.33
2019-01-24T05:23:01.279Z,37.17
2019-01-24T05:25:33.913Z,37.28
2019-01-24T05:28:03.362Z,37.03
2019-01-24T05:30:32.883Z,37.63
2019-01-24T05:33:02.314Z,32.67
2019-01-24T05:35:34.936Z,36.47
2019-01-24T05:38:03.278Z,37.83
2019-01-24T05:40:33.065Z,36.60
2019-01-24T05:43:03.253Z,35.63
2019-01-24T05:45:32.755Z,36.17
2019-01-24T05:48:02.206Z,35.83
2019-01-24T05:50:31.662Z,34.10
2019-01-24T05:53:01.037Z,35.93
2019-01-24T05:55:39.932Z,35.03
2019-01-24T05:58:09.340Z,34.80
2019-01-24T06:00:40.396Z,34.60
2019-01-24T06:03:09.857Z,35.07
2019-01-24T06:05:41.921Z,34.80
2019-01-24T06:08:11.448Z,35.97
2019-01-24T06:10:41.409Z,35.00
2019-01-24T06:13:11.112Z,34.45
2019-01-24T06:15:40.467Z,33.20
2019-01-24T06:18:10.123Z,34.87
2019-01-24T06:20:39.645Z,35.85
2019-01-24T06:23:09.053Z,32.80
2019-01-24T06:25:38.582Z,34.70
2019-01-24T06:28:08.073Z,33.63
2019-01-24T06:30:37.561Z,34.60
2019-01-24T06:33:07.037Z,32.17
2019-01-24T06:35:36.613Z,32.77
2019-01-24T06:38:07.757Z,34.63
2019-01-24T06:40:37.264Z,33.63
2019-01-24T06:43:07.194Z,33.63
2019-01-24T06:45:39.171Z,33.77
2019-01-24T06:48:09.262Z,34.30
2019-01-24T06:50:41.562Z,32.30
2019-01-24T06:53:13.102Z,35.07
2019-01-24T06:55:44.834Z,35.30
2019-01-24T06:58:14.488Z,32.73
2019-01-24T07:00:44.578Z,33.10
2019-01-24T07:03:14.219Z,34.17
2019-01-24T07:05:43.960Z,33.00
2019-01-24T07:08:13.942Z,34.33
2019-01-24T07:10:43.637Z,33.50
2019-01-24T07:13:13.124Z,33.80
2019-01-24T07:15:43.209Z,32.90
2019-01-24T07:18:12.820Z,35.15
2019-01-24T07:20:42.205Z,33.83
2019-01-24T07:23:11.564Z,33.17
2019-01-24T07:25:41.233Z,31.67
2019-01-24T07:28:11.763Z,34.07
2019-01-24T07:30:41.154Z,35.48
2019-01-24T07:33:10.854Z,34.03
2019-01-24T07:35:40.263Z,33.58
2019-01-24T07:38:09.622Z,33.67
2019-01-24T07:40:39.034Z,31.93
2019-01-24T07:43:08.381Z,33.67
2019-01-24T07:48:21.014Z,34.13
2019-01-24T07:50:50.770Z,31.10
2019-01-24T07:53:33.797Z,34.58
2019-01-24T07:55:55.196Z,33.73
2019-01-24T07:58:30.855Z,32.27
2019-01-24T08:01:03.697Z,33.10
2019-01-24T08:03:35.230Z,33.25
2019-01-24T08:06:09.042Z,34.20
2019-01-24T08:08:36.816Z,33.47
2019-01-24T08:11:07.776Z,33.20
2019-01-24T08:13:37.592Z,32.80
2019-01-24T08:16:08.154Z,34.80
2019-01-24T08:18:40.828Z,33.50
2019-01-24T08:21:10.552Z,32.33
2019-01-24T08:23:40.169Z,34.10
2019-01-24T08:26:10.053Z,33.47
2019-01-24T08:28:43.428Z,32.85
2019-01-24T08:31:18.149Z,29.73
2019-01-24T08:33:47.298Z,31.40
2019-01-24T08:36:18.675Z,32.37
2019-01-24T08:38:48.340Z,32.78
2019-01-24T08:41:18.003Z,33.47
2019-01-24T08:43:47.587Z,31.90
2019-01-24T08:46:17.531Z,33.90
2019-01-24T08:48:51.344Z,32.20
2019-01-24T08:51:23.532Z,34.23
2019-01-24T08:53:53.236Z,33.60
2019-01-24T08:56:22.924Z,34.40
2019-01-24T08:58:52.755Z,35.20
2019-01-24T09:01:22.488Z,33.83
2019-01-24T09:03:52.859Z,33.43
2019-01-24T09:06:22.854Z,31.57
2019-01-24T09:08:54.248Z,33.53
2019-01-24T09:11:24.777Z,29.50
2019-01-24T09:13:54.427Z,34.60
2019-01-24T09:16:24.107Z,30.70
2019-01-24T09:18:54.094Z,33.10
2019-01-24T09:21:23.870Z,34.83
2019-01-24T09:23:53.793Z,33.70
2019-01-24T09:26:25.559Z,33.65
2019-01-24T09:28:56.502Z,32.87
2019-01-24T09:31:27.811Z,34.00
2019-01-24T09:33:57.507Z,32.53
2019-01-24T09:36:29.307Z,33.70
2019-01-24T09:39:00.529Z,34.17
2019-01-24T09:41:30.266Z,33.60
2019-01-24T09:43:59.929Z,36.30
2019-01-24T09:46:29.912Z,33.70
2019-01-24T09:48:59.322Z,33.30
2019-01-24T09:51:29.112Z,34.80
2019-01-24T09:54:03.235Z,34.43
2019-01-24T09:56:33.027Z,34.33
2019-01-24T09:59:03.022Z,34.67
2019-01-24T10:01:32.831Z,36.55
2019-01-24T10:04:05.835Z,34.45
2019-01-24T10:06:38.605Z,36.40
2019-01-24T10:09:11.266Z,35.13
2019-01-24T10:11:40.595Z,34.83
2019-01-24T10:14:16.196Z,34.23
2019-01-24T10:16:47.418Z,35.20
2019-01-24T10:19:17.167Z,34.87
2019-01-24T10:21:47.091Z,36.73
2019-01-24T10:24:20.186Z,34.50
2019-01-24T10:26:49.620Z,34.20
2019-01-24T10:29:28.181Z,32.57
2019-01-24T10:31:58.810Z,34.00
2019-01-24T10:34:28.294Z,36.33
2019-01-24T10:36:57.971Z,36.13
2019-01-24T10:39:27.821Z,34.87
2019-01-24T10:41:57.589Z,37.73
2019-01-24T10:44:32.628Z,34.40
2019-01-24T10:47:03.313Z,35.87
2019-01-24T10:49:33.026Z,35.87
2019-01-24T10:52:03.687Z,34.53
2019-01-24T10:54:34.730Z,35.90
2019-01-24T10:57:04.580Z,36.50
2019-01-24T10:59:36.875Z,36.40
2019-01-24T11:02:06.933Z,36.03
2019-01-24T11:04:37.211Z,37.30
2019-01-24T11:07:07.022Z,36.73
2019-01-24T11:09:38.665Z,37.65
2019-01-24T11:12:11.740Z,38.47
2019-01-24T11:14:41.907Z,34.47
2019-01-24T11:17:11.754Z,34.80
2019-01-24T11:19:42.240Z,35.07
2019-01-24T11:22:13.734Z,35.57
2019-01-24T11:24:50.546Z,36.23
2019-01-24T11:27:21.951Z,35.43
2019-01-24T11:29:53.061Z,36.30
2019-01-24T11:32:36.547Z,36.87
2019-01-24T11:35:24.553Z,36.17
2019-01-24T11:38:27.684Z,33.87
2019-01-24T11:41:07.885Z,34.57
2019-01-24T11:43:43.798Z,36.80
2019-01-24T11:46:27.685Z,36.50
2019-01-24T11:48:57.848Z,37.40
2019-01-24T11:51:27.922Z,36.37
2019-01-24T11:54:05.135Z,36.53
2019-01-24T11:56:37.483Z,35.03
2019-01-24T11:59:07.475Z,35.67
2019-01-24T12:01:37.276Z,36.68
2019-01-24T12:04:07.369Z,36.83
2019-01-24T12:06:37.373Z,36.65
2019-01-24T12:09:10.463Z,36.80
2019-01-24T12:11:40.348Z,37.17
2019-01-24T12:14:09.979Z,35.63
2019-01-24T12:16:42.143Z,35.03
2019-01-24T12:19:12.165Z,34.95
2019-01-24T12:21:42.098Z,33.67
2019-01-24T12:24:12.063Z,34.75
2019-01-24T12:26:43.426Z,35.40
2019-01-24T12:29:13.307Z,36.00
2019-01-24T12:31:42.897Z,34.20
2019-01-24T12:34:12.949Z,33.23
2019-01-24T12:36:44.314Z,34.53
2019-01-24T12:39:15.704Z,35.20
2019-01-24T12:41:45.371Z,35.27
2019-01-24T12:44:15.467Z,36.17
2019-01-24T12:46:45.430Z,34.53
2019-01-24T12:49:15.712Z,32.03
2019-01-24T12:54:56.970Z,33.05
2019-01-24T12:57:29.565Z,31.40
2019-01-24T12:59:59.871Z,32.03
2019-01-24T13:02:34.105Z,33.33
2019-01-24T13:05:04.085Z,34.35
2019-01-24T13:07:33.633Z,33.13
2019-01-24T13:10:05.129Z,32.35
2019-01-24T13:12:35.189Z,32.03
2019-01-24T13:17:44.895Z,31.50
2019-01-24T13:20:17.544Z,32.10
2019-01-24T13:22:51.495Z,29.73
2019-01-24T13:25:24.608Z,30.10
2019-01-24T13:27:54.474Z,30.77
2019-01-24T13:30:30.253Z,31.90
2019-01-24T13:33:02.077Z,32.73
2019-01-24T13:35:31.737Z,33.63
2019-01-24T13:38:01.535Z,31.03
2019-01-24T13:40:33.563Z,33.87
2019-01-24T13:43:22.249Z,30.85
2019-01-24T13:45:51.685Z,33.10
2019-01-24T13:48:21.050Z,31.93
2019-01-24T13:50:50.425Z,31.83
2019-01-24T13:53:19.788Z,32.83
2019-01-24T13:55:49.157Z,30.37
2019-01-24T13:58:18.517Z,32.77
2019-01-24T14:00:47.905Z,30.97
2019-01-24T14:03:25.263Z,31.55
2019-01-24T14:05:55.108Z,32.80
2019-01-24T14:08:24.984Z,31.73
2019-01-24T14:11:07.383Z,32.80
2019-01-24T14:13:37.320Z,32.07
2019-01-24T14:16:13.774Z,32.08
2019-01-24T14:18:43.885Z,31.30
2019-01-24T14:21:16.185Z,29.17
2019-01-24T14:23:48.049Z,32.97
2019-01-24T14:26:22.436Z,31.00
2019-01-24T14:28:59.324Z,32.13
2019-01-24T14:31:29.124Z,31.07
2019-01-24T14:34:00.146Z,34.60
2019-01-24T14:36:29.605Z,31.97
2019-01-24T14:38:59.524Z,31.43
2019-01-24T14:41:29.252Z,31.63
2019-01-24T14:43:59.178Z,33.43
2019-01-24T14:46:32.377Z,33.03
2019-01-24T14:49:03.966Z,32.33
2019-01-24T14:51:33.869Z,35.63
2019-01-24T14:54:10.294Z,34.17
2019-01-24T14:56:43.181Z,32.80
2019-01-24T14:59:13.032Z,34.13
2019-01-24T15:01:42.924Z,34.60
2019-01-24T15:04:31.617Z,35.20
2019-01-24T15:07:00.998Z,31.93
2019-01-24T15:09:30.367Z,33.30
2019-01-24T15:11:59.746Z,32.50
2019-01-24T15:14:29.120Z,32.73
2019-01-24T15:16:58.494Z,31.63
2019-01-24T15:19:28.013Z,31.90
2019-01-24T15:21:57.390Z,30.97
2019-01-24T15:24:26.761Z,33.57
2019-01-24T15:26:56.148Z,34.20
2019-01-24T15:29:25.518Z,32.63
2019-01-24T15:31:54.888Z,32.97
2019-01-24T15:34:24.259Z,32.63
2019-01-24T15:36:53.640Z,33.47
2019-01-24T15:39:23.248Z,31.10
2019-01-24T15:41:52.626Z,31.83
2019-01-24T15:44:21.995Z,34.43
2019-01-24T15:46:51.364Z,30.87
2019-01-24T15:49:20.976Z,34.17
2019-01-24T15:51:50.350Z,33.97
2019-01-24T15:54:19.741Z,30.97
2019-01-24T15:56:49.118Z,31.17
2019-01-24T15:59:18.497Z,28.60
2019-01-24T16:01:47.934Z,30.90
2019-01-24T16:04:19.856Z,29.10
2019-01-24T16:06:48.391Z,27.57
2019-01-24T16:09:17.759Z,28.83
2019-01-24T16:11:47.143Z,28.47
2019-01-24T16:14:16.509Z,27.73
2019-01-24T16:16:45.900Z,29.90
2019-01-24T16:19:19.326Z,28.12
2019-01-24T16:21:49.643Z,25.95
2019-01-24T16:24:19.014Z,27.80
2019-01-24T16:26:48.388Z,27.13
2019-01-24T16:29:17.760Z,29.23
2019-01-24T16:31:47.137Z,27.73
2019-01-24T16:34:16.512Z,27.00
2019-01-24T16:36:45.923Z,27.10
2019-01-24T16:39:15.297Z,27.62
2019-01-24T16:41:44.694Z,28.27
2019-01-24T16:44:14.073Z,37.98
2019-01-24T16:46:43.937Z,31.20
2019-01-24T16:49:13.343Z,30.87
2019-01-24T16:51:42.731Z,29.23
2019-01-24T16:54:12.106Z,29.30
2019-01-24T16:56:41.475Z,30.83
2019-01-24T16:59:10.830Z,28.77
2019-01-24T17:01:40.373Z,28.10
2019-01-24T17:04:09.760Z,28.87
2019-01-24T17:06:39.766Z,28.45
2019-01-24T17:09:10.754Z,27.42
2019-01-24T17:11:40.238Z,29.53
2019-01-24T17:14:09.605Z,30.33
2019-01-24T17:16:39.036Z,29.98
2019-01-24T17:19:08.712Z,29.43
2019-01-24T17:21:38.097Z,28.70
2019-01-24T17:24:07.527Z,30.20
2019-01-24T17:26:36.906Z,29.53
2019-01-24T17:29:06.409Z,30.63
2019-01-24T17:31:36.090Z,29.40
2019-01-24T17:34:05.578Z,31.30
2019-01-24T17:36:35.238Z,31.77
2019-01-24T17:39:07.217Z,28.70
2019-01-24T17:41:36.603Z,29.13
2019-01-24T17:44:06.030Z,28.47
2019-01-24T17:46:35.414Z,29.87
2019-01-24T17:49:05.129Z,28.90
2019-01-24T17:51:34.501Z,29.97
2019-01-24T17:54:03.931Z,28.63
2019-01-24T17:56:33.698Z,30.30
2019-01-24T17:59:03.323Z,31.53
2019-01-24T18:01:32.711Z,29.10
2019-01-24T18:04:02.075Z,29.17
2019-01-24T18:06:31.477Z,30.67
2019-01-24T18:09:01.164Z,29.80
2019-01-24T18:11:30.546Z,29.23
2019-01-24T18:13:59.918Z,31.13
2019-01-24T18:16:29.357Z,30.65
2019-01-24T18:18:59.077Z,32.53
2019-01-24T18:21:29.210Z,31.37
2019-01-24T18:23:58.590Z,27.37
2019-01-24T18:26:28.014Z,31.67
2019-01-24T18:28:57.466Z,31.40
2019-01-24T18:31:27.074Z,30.90
2019-01-24T18:33:56.472Z,30.85
2019-01-24T18:36:25.899Z,31.63
2019-01-24T18:38:55.340Z,30.40
2019-01-24T18:41:25.028Z,31.03
2019-01-24T18:43:54.457Z,29.87
2019-01-24T18:46:23.840Z,30.73
2019-01-24T18:48:53.679Z,26.57
2019-01-24T18:51:23.056Z,30.33
2019-01-24T18:53:52.703Z,29.10
2019-01-24T18:56:22.341Z,29.67
2019-01-24T18:58:51.770Z,28.97
2019-01-24T19:01:21.147Z,31.17
2019-01-24T19:03:51.632Z,29.57
2019-01-24T19:06:20.998Z,29.53
2019-01-24T19:08:50.595Z,30.00
2019-01-24T19:11:19.974Z,30.80
2019-01-24T19:13:49.357Z,27.83
2019-01-24T19:16:18.976Z,30.53
2019-01-24T19:18:48.623Z,29.83
2019-01-24T19:21:18.222Z,28.33
2019-01-24T19:23:48.910Z,33.53
2019-01-24T19:26:18.271Z,33.40
2019-01-24T19:28:47.638Z,32.40
2019-01-24T19:31:17.300Z,32.85
2019-01-24T19:33:46.915Z,33.63
2019-01-24T19:36:16.281Z,34.13
2019-01-24T19:38:45.673Z,34.43
2019-01-24T19:41:15.074Z,31.83
2019-01-24T19:43:44.438Z,31.20
2019-01-24T19:46:13.804Z,34.07
2019-01-24T19:48:43.176Z,34.93
2019-01-24T19:51:12.809Z,34.03
2019-01-24T19:53:42.207Z,30.70
2019-01-24T19:56:11.714Z,33.80
2019-01-24T19:58:41.109Z,34.23
2019-01-24T20:01:10.851Z,34.87
2019-01-24T20:03:40.220Z,35.30
2019-01-24T20:06:09.937Z,31.00
2019-01-24T20:08:39.821Z,33.88
2019-01-24T20:11:09.268Z,32.90
2019-01-24T20:13:38.670Z,33.87
2019-01-24T20:16:08.309Z,35.00
2019-01-24T20:18:37.688Z,34.90
2019-01-24T20:21:07.186Z,35.65
2019-01-24T20:23:36.587Z,34.47
2019-01-24T20:26:06.596Z,35.30
2019-01-24T20:28:35.988Z,36.17
2019-01-24T20:31:05.896Z,36.87
2019-01-24T20:33:35.346Z,35.23
2019-01-24T20:36:05.227Z,36.57
2019-01-24T20:38:34.916Z,39.03
2019-01-24T20:41:04.359Z,36.90
2019-01-24T20:43:35.442Z,37.83
2019-01-24T20:46:05.127Z,39.43
2019-01-24T20:48:34.523Z,35.47
2019-01-24T20:51:03.894Z,36.40
2019-01-24T20:53:33.335Z,36.63
2019-01-24T20:56:02.846Z,35.67
2019-01-24T20:58:32.217Z,37.70
2019-01-24T21:01:01.653Z,37.67
2019-01-24T21:03:31.036Z,38.28
2019-01-24T21:06:01.035Z,36.58
2019-01-24T21:08:31.531Z,39.92
2019-01-24T21:11:00.898Z,39.40
2019-01-24T21:13:30.288Z,37.90
2019-01-24T21:15:59.637Z,39.10
2019-01-24T21:18:29.024Z,36.90
2019-01-24T21:20:58.389Z,39.20
2019-01-24T21:23:27.765Z,37.33
2019-01-24T21:29:16.594Z,36.57
2019-01-24T21:41:10.794Z,35.40
2019-01-24T21:43:58.728Z,36.17
2019-01-24T21:46:28.550Z,32.57
2019-01-24T21:49:24.574Z,34.17
2019-01-24T21:51:55.155Z,33.97
2019-01-24T21:54:24.821Z,37.13
2019-01-24T21:57:07.584Z,37.77
2019-01-24T21:59:37.527Z,37.93
2019-01-24T22:02:07.407Z,38.13
2019-01-24T22:04:48.006Z,39.33
2019-01-24T22:07:17.646Z,37.97
2019-01-24T22:09:53.293Z,36.40
2019-01-24T22:12:22.976Z,35.37
2019-01-24T22:14:57.013Z,37.42
2019-01-24T22:17:26.767Z,39.58
2019-01-24T22:19:56.985Z,40.08
2019-01-24T22:22:26.463Z,41.03
2019-01-24T22:24:56.435Z,40.60
2019-01-24T22:27:25.959Z,39.70
2019-01-24T22:30:07.702Z,39.97
2019-01-24T22:32:37.158Z,37.35
2019-01-24T22:35:07.798Z,40.77
2019-01-24T22:37:37.473Z,36.73
2019-01-24T22:40:11.662Z,39.33
2019-01-24T22:42:41.186Z,41.80
2019-01-24T22:45:15.353Z,40.30
2019-01-24T22:47:44.971Z,39.90
2019-01-24T22:50:16.742Z,35.90
2019-01-24T22:52:47.077Z,39.60
2019-01-24T22:55:17.109Z,39.87
2019-01-24T22:57:48.065Z,40.03
2019-01-24T23:00:50.095Z,38.13
2019-01-24T23:03:41.530Z,38.45
2019-01-24T23:06:11.778Z,34.50
2019-01-24T23:08:41.204Z,39.23
2019-01-24T23:11:10.747Z,39.83
2019-01-24T23:13:40.251Z,38.63
2019-01-24T23:16:09.986Z,37.70
2019-01-24T23:18:43.450Z,36.43
2019-01-24T23:24:10.260Z,36.40
2019-01-24T23:26:40.016Z,38.53
2019-01-24T23:29:09.387Z,36.93
2019-01-24T23:31:38.910Z,36.47
2019-01-24T23:34:08.685Z,39.10
2019-01-24T23:36:38.426Z,39.90
2019-01-24T23:39:09.598Z,38.23
2019-01-24T23:41:39.037Z,40.57
2019-01-24T23:44:08.573Z,38.73
2019-01-24T23:46:38.068Z,38.00
2019-01-24T23:49:07.590Z,35.80
2019-01-24T23:51:37.065Z,39.03
2019-01-24T23:54:06.591Z,40.43
2019-01-24T23:56:36.239Z,38.33
2019-01-24T23:59:05.865Z,39.93
